Time;durP1;ratioP1;P1;durP2;ratioP2;P2;SDS_P1;SDS_P2;PMS_P1;PMS_P2;Temp;Humidity;BMP_temperature;BMP_pressure;BME280_temperature;BME280_humidity;BME280_pressure;Samples;Min_cycle;Max_cycle;Signal;HPM_P1;HPM_P2
2021/08/26 00:00:20;;;;;;;4.77;4.30;;;11.90;99.90;;;;;;489971;243;28252;-69
2021/08/26 00:07:02;;;;;;;4.10;3.70;;;11.90;99.90;;;;;;489968;242;28294;-69
2021/08/26 00:09:01;;;;;;;4.30;3.90;;;11.90;99.90;;;;;;489860;242;28104;-69
2021/08/26 00:11:02;;;;;;;5.30;4.20;;;11.90;99.90;;;;;;490009;243;28162;-69
2021/08/26 00:13:06;;;;;;;3.97;3.60;;;11.90;99.90;;;;;;490005;243;28416;-69
2021/08/26 00:15:05;;;;;;;4.70;3.77;;;11.90;99.90;;;;;;489873;242;28398;-69
2021/08/26 00:17:06;;;;;;;4.03;3.70;;;12.00;99.90;;;;;;489973;243;27925;-69
2021/08/26 00:19:07;;;;;;;4.00;3.50;;;12.00;99.90;;;;;;489980;243;28687;-69
2021/08/26 00:21:08;;;;;;;4.50;3.90;;;11.90;99.90;;;;;;489995;243;28579;-69
2021/08/26 00:23:10;;;;;;;4.20;3.73;;;11.90;99.90;;;;;;489993;243;28613;-69
2021/08/26 00:25:11;;;;;;;4.00;3.70;;;11.90;99.90;;;;;;489986;243;28156;-69
2021/08/26 00:27:12;;;;;;;4.80;3.90;;;11.80;99.90;;;;;;489941;243;28027;-69
2021/08/26 00:29:13;;;;;;;4.30;3.87;;;11.70;99.90;;;;;;489958;243;28334;-69
2021/08/26 00:31:15;;;;;;;4.67;3.70;;;11.70;99.90;;;;;;490012;243;28155;-69
2021/08/26 00:33:16;;;;;;;4.70;3.90;;;11.70;99.90;;;;;;489993;243;28027;-69
2021/08/26 00:35:17;;;;;;;4.37;3.87;;;11.60;99.90;;;;;;490001;243;28195;-69
2021/08/26 00:37:18;;;;;;;4.57;3.77;;;11.60;99.90;;;;;;489988;243;28114;-69
2021/08/26 00:39:20;;;;;;;5.80;3.70;;;11.60;99.90;;;;;;489990;243;28145;-69
2021/08/26 00:41:21;;;;;;;4.83;3.80;;;11.60;99.90;;;;;;490034;243;28377;-69
2021/08/26 00:43:22;;;;;;;5.33;3.90;;;11.50;99.90;;;;;;490004;243;28590;-69
2021/08/26 00:45:23;;;;;;;5.10;4.17;;;11.50;99.90;;;;;;490011;243;28433;-69
2021/08/26 00:47:25;;;;;;;4.57;3.53;;;11.50;99.90;;;;;;489981;243;28516;-69
2021/08/26 00:49:30;;;;;;;4.30;3.53;;;11.50;99.90;;;;;;490003;243;28165;-69
2021/08/26 00:51:27;;;;;;;4.77;3.80;;;11.40;99.90;;;;;;489797;242;27999;-69
2021/08/26 00:53:28;;;;;;;3.90;3.50;;;11.40;99.90;;;;;;489985;243;28004;-69
2021/08/26 00:55:30;;;;;;;5.27;3.90;;;11.30;99.90;;;;;;490017;243;28330;-69
2021/08/26 00:57:31;;;;;;;4.43;4.03;;;11.30;99.90;;;;;;490010;243;28028;-69
2021/08/26 00:59:32;;;;;;;3.77;3.47;;;11.30;99.90;;;;;;489985;243;28102;-69
2021/08/26 01:01:33;;;;;;;5.07;3.87;;;11.30;99.90;;;;;;490076;243;27936;-69
2021/08/26 01:03:35;;;;;;;4.93;3.80;;;11.30;99.90;;;;;;490038;243;28015;-69
2021/08/26 01:05:36;;;;;;;4.87;3.90;;;11.30;99.90;;;;;;490016;243;28174;-69
2021/08/26 01:07:37;;;;;;;4.50;3.53;;;11.30;99.90;;;;;;489985;243;28330;-69
2021/08/26 01:09:38;;;;;;;5.00;3.50;;;11.20;99.90;;;;;;489960;243;28693;-69
2021/08/26 01:11:40;;;;;;;3.73;3.00;;;11.20;99.90;;;;;;490025;243;28633;-69
2021/08/26 01:13:41;;;;;;;3.47;3.17;;;11.20;99.90;;;;;;490028;243;28580;-69
2021/08/26 01:15:42;;;;;;;4.03;3.57;;;11.20;99.90;;;;;;490028;243;28030;-69
2021/08/26 01:17:43;;;;;;;4.10;3.30;;;11.20;99.90;;;;;;490012;243;28058;-69
2021/08/26 01:19:45;;;;;;;3.63;3.23;;;11.20;99.90;;;;;;490013;243;27930;-69
2021/08/26 01:21:46;;;;;;;4.47;3.30;;;11.20;99.90;;;;;;489999;243;28250;-69
2021/08/26 01:23:47;;;;;;;4.60;3.80;;;11.20;99.90;;;;;;489927;243;27816;-69
2021/08/26 01:25:48;;;;;;;3.77;3.43;;;11.20;99.90;;;;;;490035;243;28020;-69
2021/08/26 01:27:50;;;;;;;4.10;3.67;;;11.20;99.90;;;;;;490012;243;27868;-69
2021/08/26 01:29:51;;;;;;;4.40;3.63;;;11.20;99.90;;;;;;490007;243;28264;-68
2021/08/26 01:31:52;;;;;;;3.63;3.33;;;11.20;99.90;;;;;;490034;243;28988;-69
2021/08/26 01:33:53;;;;;;;4.77;3.70;;;11.10;99.90;;;;;;490027;243;28573;-68
2021/08/26 01:35:55;;;;;;;3.83;3.40;;;11.10;99.90;;;;;;490009;243;28644;-69
2021/08/26 01:37:56;;;;;;;4.00;3.60;;;11.20;99.90;;;;;;489993;243;28346;-69
2021/08/26 01:39:57;;;;;;;4.40;3.63;;;11.20;99.90;;;;;;489978;243;27809;-69
2021/08/26 01:41:58;;;;;;;5.80;3.90;;;11.20;99.90;;;;;;489972;243;28000;-69
2021/08/26 01:44:00;;;;;;;4.80;3.60;;;11.10;99.90;;;;;;490012;243;28110;-69
2021/08/26 01:46:01;;;;;;;4.23;3.60;;;11.20;99.90;;;;;;490026;243;28083;-69
2021/08/26 01:48:02;;;;;;;4.30;3.90;;;11.20;99.90;;;;;;490004;243;27904;-69
2021/08/26 01:50:03;;;;;;;4.80;3.53;;;11.10;99.90;;;;;;489976;243;27996;-69
2021/08/26 01:52:06;;;;;;;3.80;3.40;;;11.20;99.90;;;;;;489961;243;28019;-69
2021/08/26 01:54:06;;;;;;;4.90;3.60;;;11.20;99.90;;;;;;489975;243;27873;-69
2021/08/26 01:56:07;;;;;;;4.37;3.70;;;11.10;99.90;;;;;;490013;243;28047;-69
2021/08/26 01:58:09;;;;;;;4.20;3.30;;;11.20;99.90;;;;;;490011;243;28373;-69
2021/08/26 02:00:10;;;;;;;4.80;3.83;;;11.20;99.90;;;;;;489996;243;28736;-69
2021/08/26 02:02:12;;;;;;;4.80;3.50;;;11.20;99.90;;;;;;490006;243;28240;-69
2021/08/26 02:04:12;;;;;;;3.93;3.40;;;11.20;99.90;;;;;;490004;243;28044;-69
2021/08/26 02:06:14;;;;;;;4.03;3.30;;;11.10;99.90;;;;;;490003;243;27839;-69
2021/08/26 02:08:15;;;;;;;5.63;3.63;;;11.10;99.90;;;;;;489980;243;28125;-69
2021/08/26 02:10:16;;;;;;;3.93;3.23;;;11.10;99.90;;;;;;489965;243;27960;-69
2021/08/26 02:12:17;;;;;;;3.43;3.07;;;11.10;99.90;;;;;;490017;243;27952;-69
2021/08/26 02:14:19;;;;;;;4.57;3.70;;;11.10;99.90;;;;;;490023;243;27894;-69
2021/08/26 02:16:20;;;;;;;4.70;3.47;;;11.00;99.90;;;;;;490016;243;27950;-69
2021/08/26 02:18:21;;;;;;;4.00;3.60;;;11.00;99.90;;;;;;490013;243;28161;-69
2021/08/26 02:20:22;;;;;;;4.50;3.57;;;11.00;99.90;;;;;;490027;243;28263;-69
2021/08/26 02:22:24;;;;;;;5.60;3.80;;;11.10;99.90;;;;;;490017;243;28536;-69
2021/08/26 02:24:25;;;;;;;5.63;4.50;;;11.20;99.90;;;;;;490030;243;28454;-69
2021/08/26 02:26:26;;;;;;;4.57;3.67;;;11.20;99.90;;;;;;490032;243;28431;-69
2021/08/26 02:28:27;;;;;;;4.03;3.63;;;11.20;99.90;;;;;;490024;243;27682;-69
2021/08/26 02:30:29;;;;;;;4.40;4.00;;;11.20;99.90;;;;;;489994;243;27947;-69
2021/08/26 02:32:30;;;;;;;4.53;3.63;;;11.30;99.90;;;;;;490060;243;27820;-69
2021/08/26 02:34:31;;;;;;;6.30;3.50;;;11.30;99.90;;;;;;490049;243;27899;-69
2021/08/26 02:36:32;;;;;;;3.83;3.10;;;11.30;99.90;;;;;;490038;243;28022;-69
2021/08/26 02:38:34;;;;;;;4.57;3.70;;;11.30;99.90;;;;;;490044;243;28141;-69
2021/08/26 02:40:35;;;;;;;3.93;3.43;;;11.30;99.90;;;;;;490017;243;28144;-69
2021/08/26 02:42:36;;;;;;;3.50;3.20;;;11.30;99.90;;;;;;490047;243;28116;-69
2021/08/26 02:44:37;;;;;;;5.10;3.60;;;11.30;99.90;;;;;;490033;243;28204;-69
2021/08/26 02:46:39;;;;;;;4.07;3.60;;;11.30;99.90;;;;;;490038;243;28556;-69
2021/08/26 02:48:40;;;;;;;3.77;3.43;;;11.30;99.90;;;;;;490020;243;28582;-69
2021/08/26 02:50:41;;;;;;;4.57;3.67;;;11.30;99.90;;;;;;490011;242;28498;-69
2021/08/26 02:52:42;;;;;;;5.70;4.40;;;11.30;99.90;;;;;;490031;243;28455;-69
2021/08/26 02:54:44;;;;;;;4.67;3.80;;;11.40;99.90;;;;;;489993;243;27964;-69
2021/08/26 02:56:45;;;;;;;4.70;3.90;;;11.40;99.90;;;;;;489982;243;27988;-69
2021/08/26 02:58:46;;;;;;;3.70;3.03;;;11.40;99.90;;;;;;490006;243;28097;-69
2021/08/26 03:00:47;;;;;;;3.50;3.20;;;11.40;99.90;;;;;;490032;243;28136;-69
2021/08/26 03:02:49;;;;;;;4.50;3.53;;;11.50;99.90;;;;;;490014;243;28060;-69
2021/08/26 03:04:50;;;;;;;4.17;3.40;;;11.50;99.90;;;;;;489996;243;28242;-69
2021/08/26 03:06:51;;;;;;;4.10;3.30;;;11.50;99.90;;;;;;489975;243;28071;-69
2021/08/26 03:08:52;;;;;;;4.17;3.63;;;11.50;99.90;;;;;;490020;243;28710;-70
2021/08/26 03:10:54;;;;;;;4.87;3.40;;;11.50;99.90;;;;;;489998;243;28817;-69
2021/08/26 03:12:55;;;;;;;4.10;3.70;;;11.50;99.90;;;;;;489989;243;28781;-69
2021/08/26 03:14:56;;;;;;;3.23;2.93;;;11.50;99.90;;;;;;489966;243;28480;-70
2021/08/26 03:16:57;;;;;;;3.60;3.30;;;11.60;99.90;;;;;;489984;243;28404;-70
2021/08/26 03:18:59;;;;;;;4.77;3.50;;;11.60;99.90;;;;;;490030;243;28187;-69
2021/08/26 03:21:00;;;;;;;4.40;3.53;;;11.60;99.90;;;;;;489989;243;28199;-69
2021/08/26 03:23:01;;;;;;;4.77;3.50;;;11.60;99.90;;;;;;490016;243;28738;-69
2021/08/26 03:25:02;;;;;;;3.47;3.17;;;11.60;99.90;;;;;;490019;243;28698;-70
2021/08/26 03:27:04;;;;;;;3.73;3.33;;;11.70;99.90;;;;;;490015;243;28565;-69
2021/08/26 03:29:05;;;;;;;4.00;3.40;;;11.70;99.90;;;;;;490025;243;28749;-70
2021/08/26 03:31:06;;;;;;;4.43;4.00;;;11.70;99.90;;;;;;490024;243;28040;-69
2021/08/26 03:33:07;;;;;;;4.27;3.40;;;11.70;99.90;;;;;;490003;243;28200;-69
2021/08/26 03:35:09;;;;;;;4.57;3.80;;;11.60;99.90;;;;;;489987;243;28228;-70
2021/08/26 03:37:10;;;;;;;3.90;3.43;;;11.60;99.90;;;;;;490009;243;28271;-69
2021/08/26 03:39:11;;;;;;;5.17;4.37;;;11.60;99.90;;;;;;490035;243;28318;-69
2021/08/26 03:41:13;;;;;;;4.00;3.60;;;11.50;99.90;;;;;;490009;243;28124;-69
2021/08/26 03:43:14;;;;;;;4.73;3.63;;;11.30;99.90;;;;;;489986;243;28193;-69
2021/08/26 03:45:15;;;;;;;5.83;3.57;;;11.30;99.90;;;;;;490019;243;28402;-69
2021/08/26 03:47:16;;;;;;;4.07;2.90;;;11.30;99.90;;;;;;490001;243;28598;-70
2021/08/26 03:49:18;;;;;;;4.37;3.43;;;11.30;99.90;;;;;;489985;243;28906;-70
2021/08/26 03:51:19;;;;;;;3.90;3.33;;;11.30;99.90;;;;;;489997;243;28433;-69
2021/08/26 03:53:20;;;;;;;3.87;3.40;;;11.20;99.90;;;;;;489991;243;28567;-69
2021/08/26 03:55:21;;;;;;;2.93;2.73;;;11.20;99.90;;;;;;490004;243;28052;-69
2021/08/26 03:57:23;;;;;;;5.23;3.97;;;11.20;99.90;;;;;;490019;243;28029;-69
2021/08/26 03:59:24;;;;;;;5.10;3.50;;;11.20;99.90;;;;;;490002;243;28294;-69
2021/08/26 04:01:25;;;;;;;3.30;3.00;;;11.20;99.90;;;;;;490029;243;28113;-70
2021/08/26 04:03:26;;;;;;;3.60;3.27;;;11.20;99.90;;;;;;490008;243;28081;-70
2021/08/26 04:05:28;;;;;;;3.23;2.93;;;11.20;99.90;;;;;;490028;243;28075;-70
2021/08/26 04:07:31;;;;;;;4.13;3.23;;;11.10;99.90;;;;;;490006;243;28070;-70
2021/08/26 04:09:30;;;;;;;4.67;3.57;;;11.20;99.90;;;;;;489851;242;28287;-69
2021/08/26 04:11:31;;;;;;;3.57;3.20;;;11.10;99.90;;;;;;490038;243;28008;-69
2021/08/26 04:13:33;;;;;;;3.87;3.30;;;11.10;99.90;;;;;;490017;243;28511;-70
2021/08/26 04:15:34;;;;;;;5.40;3.70;;;11.10;99.90;;;;;;490055;243;28785;-69
2021/08/26 04:17:35;;;;;;;4.73;3.73;;;11.20;99.90;;;;;;490034;243;28493;-69
2021/08/26 04:19:36;;;;;;;5.13;3.47;;;11.10;99.90;;;;;;490006;243;27957;-69
2021/08/26 04:21:38;;;;;;;4.17;3.17;;;11.10;99.90;;;;;;490002;243;27929;-70
2021/08/26 04:23:40;;;;;;;3.73;3.33;;;11.10;99.90;;;;;;490008;243;27834;-69
2021/08/26 04:25:41;;;;;;;4.00;3.40;;;11.10;99.90;;;;;;490031;243;27928;-69
2021/08/26 04:27:42;;;;;;;5.53;3.90;;;11.10;99.90;;;;;;489998;243;28260;-69
2021/08/26 04:29:43;;;;;;;4.83;3.27;;;11.30;99.90;;;;;;490006;243;28563;-69
2021/08/26 04:31:45;;;;;;;4.70;3.13;;;11.30;99.90;;;;;;490028;243;28655;-69
2021/08/26 04:33:46;;;;;;;3.50;3.17;;;11.40;99.90;;;;;;489971;243;28444;-69
2021/08/26 04:35:47;;;;;;;3.50;3.20;;;11.40;99.90;;;;;;490018;243;28023;-70
2021/08/26 04:37:48;;;;;;;4.13;3.43;;;11.50;99.90;;;;;;490019;243;28071;-70
2021/08/26 04:39:50;;;;;;;3.93;3.13;;;11.50;99.90;;;;;;489994;243;28034;-69
2021/08/26 04:41:51;;;;;;;4.30;3.53;;;11.60;99.90;;;;;;489989;243;28150;-69
2021/08/26 04:43:52;;;;;;;4.10;3.60;;;11.60;99.90;;;;;;489975;243;28199;-69
2021/08/26 04:45:53;;;;;;;4.50;4.10;;;11.60;99.90;;;;;;489977;243;28330;-70
2021/08/26 04:47:55;;;;;;;4.03;3.73;;;11.50;99.90;;;;;;489987;243;28084;-69
2021/08/26 04:49:56;;;;;;;4.10;3.73;;;11.60;99.90;;;;;;489991;243;27912;-69
2021/08/26 04:51:57;;;;;;;4.43;3.80;;;11.60;99.90;;;;;;489983;243;28320;-70
2021/08/26 04:53:58;;;;;;;4.57;3.83;;;11.60;99.90;;;;;;489997;243;28468;-70
2021/08/26 04:56:00;;;;;;;4.40;3.73;;;11.60;99.90;;;;;;490004;243;28653;-69
2021/08/26 04:58:01;;;;;;;4.93;3.83;;;11.70;99.90;;;;;;490000;243;28551;-69
2021/08/26 05:00:02;;;;;;;4.20;3.80;;;11.70;99.90;;;;;;490004;243;28441;-70
2021/08/26 05:02:03;;;;;;;5.37;3.53;;;11.80;99.90;;;;;;490006;243;28092;-69
2021/08/26 05:04:05;;;;;;;5.43;3.93;;;11.80;99.90;;;;;;489970;243;28062;-70
2021/08/26 05:06:06;;;;;;;4.00;3.50;;;11.80;99.90;;;;;;490012;243;28110;-69
2021/08/26 05:08:07;;;;;;;3.80;3.40;;;11.90;99.90;;;;;;490010;243;28256;-69
2021/08/26 05:10:10;;;;;;;3.70;3.40;;;;;;;;;;489990;243;28142;-70
2021/08/26 05:12:11;;;;;;;6.73;4.10;;;12.00;99.90;;;;;;489970;241;27704;-70
2021/08/26 05:14:12;;;;;;;5.43;3.67;;;12.10;99.90;;;;;;489955;243;28138;-70
2021/08/26 05:16:13;;;;;;;4.50;3.80;;;12.00;99.90;;;;;;489997;243;28286;-70
2021/08/26 05:18:15;;;;;;;4.10;3.73;;;12.10;99.90;;;;;;489973;243;28123;-70
2021/08/26 05:20:17;;;;;;;4.63;3.90;;;12.10;99.90;;;;;;489963;243;28304;-69
2021/08/26 05:22:18;;;;;;;3.87;3.50;;;12.20;99.90;;;;;;489986;243;28393;-70
2021/08/26 05:24:20;;;;;;;4.30;3.90;;;12.20;99.90;;;;;;490005;243;28091;-70
2021/08/26 05:26:21;;;;;;;4.33;3.90;;;12.10;99.90;;;;;;489964;243;28643;-70
2021/08/26 05:28:22;;;;;;;5.07;4.47;;;12.10;99.90;;;;;;489968;243;28686;-70
2021/08/26 05:30:23;;;;;;;4.63;4.10;;;12.10;99.90;;;;;;489958;243;28834;-69
2021/08/26 05:32:25;;;;;;;5.33;4.10;;;12.10;99.90;;;;;;489975;243;28178;-70
2021/08/26 05:34:26;;;;;;;4.10;3.70;;;12.20;99.90;;;;;;489984;243;28189;-69
2021/08/26 05:36:27;;;;;;;5.10;3.53;;;12.20;99.90;;;;;;489960;243;28256;-70
2021/08/26 05:38:28;;;;;;;5.13;3.97;;;12.20;99.90;;;;;;489957;243;28365;-70
2021/08/26 05:40:30;;;;;;;3.80;3.50;;;12.20;99.90;;;;;;489990;243;28176;-70
2021/08/26 05:42:31;;;;;;;3.70;3.30;;;12.20;99.90;;;;;;489956;243;28148;-70
2021/08/26 05:44:32;;;;;;;4.07;3.70;;;12.20;99.90;;;;;;489964;243;28294;-70
2021/08/26 05:46:33;;;;;;;7.53;3.97;;;12.20;99.90;;;;;;489946;243;28237;-69
2021/08/26 05:48:35;;;;;;;4.37;3.93;;;12.20;99.90;;;;;;489931;243;28443;-72
2021/08/26 05:50:36;;;;;;;4.50;4.00;;;12.20;99.90;;;;;;489980;243;29042;-69
2021/08/26 05:52:37;;;;;;;4.27;3.87;;;12.20;99.90;;;;;;489962;243;28471;-69
2021/08/26 05:54:38;;;;;;;4.13;3.73;;;12.30;99.90;;;;;;489952;243;28780;-69
2021/08/26 05:56:40;;;;;;;4.20;3.70;;;12.30;99.90;;;;;;489959;243;28258;-70
2021/08/26 05:58:41;;;;;;;3.80;3.40;;;12.30;99.90;;;;;;489962;243;28407;-69
2021/08/26 06:00:44;;;;;;;4.07;3.60;;;12.40;99.90;;;;;;490048;242;28189;-70
2021/08/26 06:02:45;;;;;;;4.17;3.77;;;12.30;99.90;;;;;;490009;243;28446;-68
2021/08/26 06:04:46;;;;;;;4.47;4.07;;;12.40;99.90;;;;;;489990;243;28468;-69
2021/08/26 06:06:47;;;;;;;3.87;3.47;;;12.40;99.90;;;;;;490017;243;28805;-69
2021/08/26 06:08:49;;;;;;;5.07;3.73;;;12.40;99.90;;;;;;490024;243;28984;-69
2021/08/26 06:10:50;;;;;;;5.93;4.03;;;12.30;99.90;;;;;;490005;243;28690;-70
2021/08/26 06:12:52;;;;;;;6.60;4.70;;;12.40;99.90;;;;;;489990;243;28497;-69
2021/08/26 06:14:52;;;;;;;4.90;4.10;;;12.30;99.90;;;;;;489947;243;28444;-69
2021/08/26 06:16:54;;;;;;;5.27;3.90;;;12.30;99.90;;;;;;489996;243;28166;-69
2021/08/26 06:18:55;;;;;;;4.90;4.13;;;12.30;99.90;;;;;;490010;243;28505;-69
2021/08/26 06:20:56;;;;;;;4.80;3.77;;;12.30;99.90;;;;;;489999;243;28371;-69
2021/08/26 06:22:57;;;;;;;6.27;4.37;;;12.40;99.90;;;;;;490027;243;28157;-70
2021/08/26 06:24:59;;;;;;;4.77;4.27;;;12.40;99.90;;;;;;489988;243;28289;-69
2021/08/26 06:27:01;;;;;;;4.57;4.17;;;12.40;99.90;;;;;;489996;243;28355;-69
2021/08/26 06:29:01;;;;;;;5.70;4.63;;;12.40;99.90;;;;;;489910;243;29026;-69
2021/08/26 06:31:02;;;;;;;5.50;4.70;;;12.40;99.90;;;;;;490003;243;28809;-70
2021/08/26 06:33:04;;;;;;;5.30;4.20;;;12.40;99.90;;;;;;489995;243;28610;-69
2021/08/26 06:35:06;;;;;;;6.27;4.90;;;12.40;99.90;;;;;;489976;243;28760;-69
2021/08/26 06:37:06;;;;;;;5.77;4.80;;;12.50;99.90;;;;;;489961;243;28228;-69
2021/08/26 06:39:07;;;;;;;5.40;4.67;;;12.50;99.90;;;;;;490024;243;28320;-69
2021/08/26 06:41:09;;;;;;;7.30;4.93;;;12.50;99.90;;;;;;490009;243;28349;-69
2021/08/26 06:43:10;;;;;;;6.57;5.10;;;12.50;99.90;;;;;;489978;243;28282;-69
2021/08/26 06:45:11;;;;;;;5.77;4.37;;;12.60;99.90;;;;;;489980;243;28491;-71
2021/08/26 06:47:12;;;;;;;7.90;5.13;;;12.60;99.90;;;;;;490015;243;28246;-71
2021/08/26 06:49:14;;;;;;;6.97;5.17;;;12.60;99.90;;;;;;490010;243;28588;-71
2021/08/26 06:51:15;;;;;;;5.20;4.73;;;12.60;99.90;;;;;;490014;243;28507;-71
2021/08/26 06:53:17;;;;;;;6.07;5.23;;;;;;;;;;489988;243;29348;-71
2021/08/26 06:55:19;;;;;;;6.50;4.80;;;12.60;99.90;;;;;;489986;241;26920;-70
2021/08/26 06:57:20;;;;;;;5.67;4.70;;;12.70;99.90;;;;;;490022;243;28895;-71
2021/08/26 06:59:22;;;;;;;6.87;5.37;;;;;;;;;;490047;243;28378;-71
2021/08/26 07:01:23;;;;;;;5.40;4.90;;;12.70;99.90;;;;;;490012;241;26577;-68
2021/08/26 07:03:25;;;;;;;6.13;4.93;;;12.70;99.90;;;;;;490007;243;28404;-68
2021/08/26 07:05:26;;;;;;;4.50;4.10;;;12.70;99.90;;;;;;490016;243;28842;-68
2021/08/26 07:07:27;;;;;;;6.00;4.80;;;12.70;99.90;;;;;;490020;243;28407;-69
2021/08/26 07:09:28;;;;;;;4.57;4.17;;;12.70;99.90;;;;;;489992;243;28192;-71
2021/08/26 07:11:30;;;;;;;7.20;4.80;;;12.70;99.90;;;;;;489987;243;28103;-68
2021/08/26 07:13:31;;;;;;;7.07;5.20;;;12.70;99.90;;;;;;490036;243;28428;-69
2021/08/26 07:15:32;;;;;;;5.63;5.07;;;12.60;99.90;;;;;;489985;243;28110;-71
2021/08/26 07:17:33;;;;;;;6.73;4.90;;;12.60;99.90;;;;;;490031;243;28920;-71
2021/08/26 07:19:35;;;;;;;5.17;4.60;;;12.60;99.90;;;;;;489981;243;29375;-71
2021/08/26 07:21:36;;;;;;;7.33;5.60;;;12.60;99.90;;;;;;489986;243;29515;-71
2021/08/26 07:23:37;;;;;;;7.60;5.07;;;12.60;99.90;;;;;;490013;243;28580;-71
2021/08/26 07:25:38;;;;;;;6.23;4.93;;;12.60;99.90;;;;;;489885;243;28181;-71
2021/08/26 07:27:40;;;;;;;7.60;5.43;;;12.60;99.90;;;;;;489812;243;28762;-71
2021/08/26 07:29:41;;;;;;;5.60;5.10;;;12.60;99.90;;;;;;489774;243;28180;-72
2021/08/26 07:31:43;;;;;;;6.40;5.20;;;12.60;99.90;;;;;;489987;243;28557;-72
2021/08/26 07:33:43;;;;;;;6.00;5.20;;;12.60;99.90;;;;;;488207;243;28081;-71
2021/08/26 07:35:45;;;;;;;8.07;5.80;;;12.60;99.90;;;;;;488571;243;28186;-71
2021/08/26 07:37:46;;;;;;;5.53;5.00;;;12.70;99.90;;;;;;489973;243;28580;-71
2021/08/26 07:39:47;;;;;;;7.27;5.73;;;12.60;99.90;;;;;;489954;243;29371;-69
2021/08/26 07:41:50;;;;;;;5.17;4.73;;;;;;;;;;489992;243;28801;-69
2021/08/26 07:43:51;;;;;;;6.70;4.90;;;12.60;99.90;;;;;;490006;241;26628;-69
2021/08/26 07:45:52;;;;;;;5.03;4.47;;;12.70;99.90;;;;;;489948;243;28761;-71
2021/08/26 07:47:53;;;;;;;5.80;5.10;;;12.70;99.90;;;;;;489973;243;28286;-68
2021/08/26 07:49:55;;;;;;;4.93;4.53;;;12.60;99.90;;;;;;490018;243;28342;-69
2021/08/26 07:51:56;;;;;;;6.80;5.50;;;12.60;99.90;;;;;;489989;243;28828;-71
2021/08/26 07:53:58;;;;;;;5.57;5.03;;;12.70;99.90;;;;;;489972;243;28747;-71
2021/08/26 07:55:58;;;;;;;5.80;4.87;;;12.70;99.90;;;;;;489940;243;28547;-71
2021/08/26 07:58:00;;;;;;;5.30;4.80;;;12.70;99.90;;;;;;489947;243;28818;-69
2021/08/26 08:00:01;;;;;;;5.80;5.20;;;12.70;99.90;;;;;;490021;243;28327;-71
2021/08/26 08:02:02;;;;;;;5.20;4.70;;;12.70;99.90;;;;;;489999;243;28203;-69
2021/08/26 08:04:03;;;;;;;5.17;4.67;;;12.70;99.90;;;;;;489972;243;28633;-71
2021/08/26 08:06:05;;;;;;;5.90;4.90;;;12.80;99.90;;;;;;489974;243;28295;-69
2021/08/26 08:08:06;;;;;;;7.30;5.13;;;12.70;99.90;;;;;;489950;243;28273;-68
2021/08/26 08:10:07;;;;;;;7.23;5.80;;;12.70;99.90;;;;;;490005;243;28068;-69
2021/08/26 08:12:08;;;;;;;6.17;5.20;;;12.60;99.90;;;;;;489996;243;28800;-70
2021/08/26 08:14:10;;;;;;;6.30;5.70;;;12.70;99.90;;;;;;489922;243;28313;-70
2021/08/26 08:16:11;;;;;;;6.87;5.70;;;12.70;99.90;;;;;;489985;243;28052;-70
2021/08/26 08:18:12;;;;;;;4.90;4.50;;;12.70;99.90;;;;;;490002;243;28695;-70
2021/08/26 08:20:13;;;;;;;5.50;4.80;;;12.70;99.90;;;;;;489978;243;28804;-70
2021/08/26 08:22:15;;;;;;;6.20;4.87;;;12.70;99.90;;;;;;489978;243;28743;-69
2021/08/26 08:24:16;;;;;;;6.37;5.23;;;12.80;99.90;;;;;;489975;243;28582;-70
2021/08/26 08:26:17;;;;;;;7.70;5.10;;;12.80;99.90;;;;;;489927;243;28330;-69
2021/08/26 08:28:18;;;;;;;6.03;5.43;;;12.90;99.90;;;;;;489990;243;28150;-71
2021/08/26 08:30:25;;;;;;;5.00;4.50;;;12.90;99.90;;;;;;489950;243;28183;-71
2021/08/26 08:32:21;;;;;;;5.20;4.50;;;13.10;99.90;;;;;;489563;242;28803;-71
2021/08/26 08:34:22;;;;;;;6.23;4.80;;;13.20;99.90;;;;;;489996;243;28183;-69
2021/08/26 08:36:23;;;;;;;4.60;4.17;;;13.40;99.90;;;;;;489956;243;28279;-70
2021/08/26 08:38:25;;;;;;;5.00;4.33;;;13.40;99.90;;;;;;490003;243;28194;-69
2021/08/26 08:40:26;;;;;;;6.13;4.50;;;13.50;99.90;;;;;;489991;243;28973;-71
2021/08/26 08:42:31;;;;;;;4.30;3.90;;;13.60;99.90;;;;;;489928;243;28720;-71
2021/08/26 08:44:28;;;;;;;4.20;3.80;;;13.60;99.90;;;;;;489700;242;28816;-69
2021/08/26 08:46:30;;;;;;;3.97;3.63;;;13.90;99.90;;;;;;489934;243;28813;-69
2021/08/26 08:48:31;;;;;;;3.73;3.17;;;13.90;99.90;;;;;;489984;243;28152;-71
2021/08/26 08:50:32;;;;;;;4.07;3.67;;;14.10;99.90;;;;;;489968;243;28426;-71
2021/08/26 08:52:33;;;;;;;4.00;3.70;;;14.10;99.90;;;;;;489958;243;28451;-71
2021/08/26 08:54:35;;;;;;;3.60;3.30;;;14.40;99.90;;;;;;489960;243;28517;-71
2021/08/26 08:56:36;;;;;;;3.40;3.10;;;14.60;99.90;;;;;;489956;243;28773;-71
2021/08/26 08:58:37;;;;;;;3.40;3.10;;;14.60;99.90;;;;;;489949;243;28471;-71
2021/08/26 09:00:38;;;;;;;3.37;3.00;;;14.50;99.90;;;;;;490001;243;28804;-71
2021/08/26 09:02:40;;;;;;;3.13;2.90;;;14.50;99.90;;;;;;489960;243;28762;-71
2021/08/26 09:04:41;;;;;;;3.50;3.20;;;14.60;99.90;;;;;;489928;243;29315;-71
2021/08/26 09:06:42;;;;;;;3.10;2.80;;;14.90;99.90;;;;;;489946;243;29993;-71
2021/08/26 09:08:43;;;;;;;2.50;2.30;;;15.10;99.90;;;;;;489951;243;29319;-71
2021/08/26 09:10:45;;;;;;;3.00;2.80;;;15.30;99.90;;;;;;489977;243;29301;-71
2021/08/26 09:12:46;;;;;;;5.13;2.83;;;15.20;99.90;;;;;;489983;243;28766;-71
2021/08/26 09:14:47;;;;;;;3.20;2.93;;;15.20;99.90;;;;;;489980;243;28907;-71
2021/08/26 09:16:54;;;;;;;3.10;2.80;;;15.00;99.90;;;;;;489968;243;28811;-71
2021/08/26 09:18:50;;;;;;;3.20;2.80;;;15.10;99.90;;;;;;489524;242;28815;-71
2021/08/26 09:20:51;;;;;;;3.20;2.67;;;15.00;99.90;;;;;;489933;243;28869;-71
2021/08/26 09:22:52;;;;;;;3.00;2.50;;;15.00;99.90;;;;;;489975;243;28763;-71
2021/08/26 09:24:54;;;;;;;3.20;2.90;;;14.80;99.90;;;;;;489946;243;28910;-71
2021/08/26 09:26:55;;;;;;;3.30;3.00;;;14.90;99.90;;;;;;489915;243;28767;-71
2021/08/26 09:28:56;;;;;;;3.50;3.00;;;14.80;99.90;;;;;;489906;243;28779;-71
2021/08/26 09:30:57;;;;;;;3.33;2.90;;;15.00;99.90;;;;;;489561;243;29377;-71
2021/08/26 09:32:59;;;;;;;3.33;2.77;;;15.00;99.90;;;;;;489861;243;29222;-71
2021/08/26 09:35:00;;;;;;;3.30;3.00;;;15.10;99.90;;;;;;489565;243;29368;-71
2021/08/26 09:37:01;;;;;;;2.93;2.53;;;15.20;99.90;;;;;;489975;243;28854;-71
2021/08/26 09:39:02;;;;;;;4.30;3.27;;;15.30;99.90;;;;;;489084;243;28782;-71
2021/08/26 09:41:04;;;;;;;4.23;3.30;;;15.30;99.90;;;;;;488408;242;28835;-71
2021/08/26 09:43:05;;;;;;;3.40;3.10;;;15.20;99.90;;;;;;488448;242;28854;-71
2021/08/26 09:45:06;;;;;;;3.10;2.90;;;15.40;99.90;;;;;;488418;242;28743;-71
2021/08/26 09:47:09;;;;;;;3.80;3.17;;;15.40;99.90;;;;;;488165;242;30066;-71
2021/08/26 09:49:09;;;;;;;3.03;2.73;;;15.40;99.90;;;;;;488429;242;29171;-71
2021/08/26 09:51:10;;;;;;;3.10;2.80;;;15.30;99.90;;;;;;488424;242;29216;-71
2021/08/26 09:53:11;;;;;;;2.80;2.60;;;15.20;99.90;;;;;;488393;242;28721;-71
2021/08/26 09:55:12;;;;;;;4.07;2.60;;;15.10;99.90;;;;;;488424;242;28743;-71
2021/08/26 09:57:14;;;;;;;4.20;2.63;;;15.10;99.90;;;;;;488396;242;28724;-71
2021/08/26 09:59:15;;;;;;;3.27;3.00;;;15.20;99.90;;;;;;488434;242;28742;-71
2021/08/26 10:01:23;;;;;;;3.50;3.20;;;15.50;99.90;;;;;;488457;242;28813;-71
2021/08/26 10:03:20;;;;;;;3.40;3.10;;;15.90;99.90;;;;;;488238;243;28865;-71
2021/08/26 10:05:22;;;;;;;2.80;2.60;;;15.90;99.90;;;;;;488405;242;28822;-71
2021/08/26 10:07:23;;;;;;;4.33;3.30;;;16.00;99.90;;;;;;488444;242;28771;-71
2021/08/26 10:09:24;;;;;;;3.27;2.97;;;16.00;99.90;;;;;;488433;242;29202;-71
2021/08/26 10:11:26;;;;;;;3.73;3.30;;;15.90;99.90;;;;;;488403;242;29330;-71
2021/08/26 10:13:27;;;;;;;3.77;3.47;;;15.80;99.90;;;;;;488415;243;29233;-69
2021/08/26 10:15:28;;;;;;;3.77;2.60;;;15.80;99.90;;;;;;488381;243;29161;-72
2021/08/26 10:17:29;;;;;;;4.83;3.50;;;15.80;99.90;;;;;;488459;242;28708;-72
2021/08/26 10:19:30;;;;;;;2.87;2.60;;;15.70;99.90;;;;;;488389;242;28827;-71
2021/08/26 10:21:32;;;;;;;3.50;3.00;;;15.50;99.90;;;;;;488449;242;28808;-72
2021/08/26 10:23:33;;;;;;;3.03;2.77;;;15.40;99.90;;;;;;488428;242;28731;-69
2021/08/26 10:25:34;;;;;;;3.30;2.93;;;15.30;99.90;;;;;;488398;242;28746;-69
2021/08/26 10:27:35;;;;;;;3.37;3.07;;;15.30;99.90;;;;;;488434;242;28806;-72
2021/08/26 10:29:38;;;;;;;4.93;3.10;;;15.30;99.90;;;;;;488430;242;28831;-72
2021/08/26 10:31:39;;;;;;;3.00;2.80;;;15.30;99.90;;;;;;488395;242;28712;-70
2021/08/26 10:33:39;;;;;;;4.43;3.13;;;15.30;99.90;;;;;;488386;242;29225;-70
2021/08/26 10:35:40;;;;;;;3.67;3.07;;;15.20;99.90;;;;;;488437;242;29506;-70